sensor_id;sensor_type;location;lat;lon;timestamp;pressure;altitude;pressure_sealevel;temperature;humidity
28588;BME280;15787;49.662;10.162;2023-11-22T00:00:11;99668.13;;;4.29;91.60
28588;BME280;15787;49.662;10.162;2023-11-22T00:02:46;99667.91;;;4.15;91.79
28588;BME280;15787;49.662;10.162;2023-11-22T00:05:20;99665.53;;;4.14;91.61
28588;BME280;15787;49.662;10.162;2023-11-22T00:07:53;99661.56;;;4.15;92.13
28588;BME280;15787;49.662;10.162;2023-11-22T00:10:26;99665.94;;;4.16;91.78
28588;BME280;15787;49.662;10.162;2023-11-22T00:12:59;99667.91;;;4.15;91.93
28588;BME280;15787;49.662;10.162;2023-11-22T00:15:32;99679.41;;;3.91;90.84
28588;BME280;15787;49.662;10.162;2023-11-22T00:18:06;99670.00;;;3.96;91.70
28588;BME280;15787;49.662;10.162;2023-11-22T00:20:39;99675.03;;;3.90;91.25
28588;BME280;15787;49.662;10.162;2023-11-22T00:23:12;99671.72;;;4.07;92.02
28588;BME280;15787;49.662;10.162;2023-11-22T00:25:45;99677.09;;;3.97;92.06
28588;BME280;15787;49.662;10.162;2023-11-22T00:28:18;99670.56;;;3.82;92.71
28588;BME280;15787;49.662;10.162;2023-11-22T00:30:50;99677.06;;;3.93;93.53
28588;BME280;15787;49.662;10.162;2023-11-22T00:33:26;99678.66;;;3.71;92.37
28588;BME280;15787;49.662;10.162;2023-11-22T00:36:01;99672.59;;;3.85;93.23
28588;BME280;15787;49.662;10.162;2023-11-22T00:38:36;99679.25;;;3.84;93.29
28588;BME280;15787;49.662;10.162;2023-11-22T00:41:11;99680.06;;;3.84;93.61
28588;BME280;15787;49.662;10.162;2023-11-22T00:43:46;99694.63;;;3.81;93.58
28588;BME280;15787;49.662;10.162;2023-11-22T00:46:19;99695.19;;;3.91;94.72
28588;BME280;15787;49.662;10.162;2023-11-22T00:48:54;99700.53;;;3.80;94.89
28588;BME280;15787;49.662;10.162;2023-11-22T00:51:27;99693.16;;;3.88;95.13
28588;BME280;15787;49.662;10.162;2023-11-22T00:54:01;99697.38;;;3.81;95.24
28588;BME280;15787;49.662;10.162;2023-11-22T00:56:34;99708.91;;;3.87;95.74
28588;BME280;15787;49.662;10.162;2023-11-22T00:59:07;99700.72;;;3.94;97.28
28588;BME280;15787;49.662;10.162;2023-11-22T01:01:40;99706.44;;;3.78;98.24
28588;BME280;15787;49.662;10.162;2023-11-22T01:04:15;99694.75;;;4.15;99.90
28588;BME280;15787;49.662;10.162;2023-11-22T01:06:48;99698.44;;;3.96;100.00
28588;BME280;15787;49.662;10.162;2023-11-22T01:09:20;99684.75;;;3.80;100.00
28588;BME280;15787;49.662;10.162;2023-11-22T01:11:54;99692.81;;;3.93;100.00
28588;BME280;15787;49.662;10.162;2023-11-22T01:14:27;99695.38;;;4.05;100.00
28588;BME280;15787;49.662;10.162;2023-11-22T01:17:01;99705.75;;;4.11;100.00
28588;BME280;15787;49.662;10.162;2023-11-22T01:19:35;99703.34;;;4.36;100.00
28588;BME280;15787;49.662;10.162;2023-11-22T01:22:09;99708.34;;;4.01;100.00
28588;BME280;15787;49.662;10.162;2023-11-22T01:24:41;99708.31;;;4.23;100.00
28588;BME280;15787;49.662;10.162;2023-11-22T01:27:14;99704.53;;;4.09;100.00
28588;BME280;15787;49.662;10.162;2023-11-22T01:29:47;99714.88;;;4.15;100.00
28588;BME280;15787;49.662;10.162;2023-11-22T01:32:20;99716.09;;;4.18;100.00
28588;BME280;15787;49.662;10.162;2023-11-22T01:34:54;99716.06;;;4.14;100.00
28588;BME280;15787;49.662;10.162;2023-11-22T01:37:29;99722.13;;;4.23;100.00
28588;BME280;15787;49.662;10.162;2023-11-22T01:40:02;99712.25;;;3.96;100.00
28588;BME280;15787;49.662;10.162;2023-11-22T01:42:36;99711.22;;;4.08;100.00
28588;BME280;15787;49.662;10.162;2023-11-22T01:45:12;99716.84;;;4.15;100.00
28588;BME280;15787;49.662;10.162;2023-11-22T01:47:45;99723.66;;;4.21;100.00
28588;BME280;15787;49.662;10.162;2023-11-22T01:50:21;99725.59;;;4.17;100.00
28588;BME280;15787;49.662;10.162;2023-11-22T01:52:54;99728.63;;;4.34;100.00
28588;BME280;15787;49.662;10.162;2023-11-22T01:55:27;99731.56;;;4.22;100.00
28588;BME280;15787;49.662;10.162;2023-11-22T01:58:00;99734.53;;;4.07;100.00
28588;BME280;15787;49.662;10.162;2023-11-22T02:00:36;99728.50;;;4.27;100.00
28588;BME280;15787;49.662;10.162;2023-11-22T02:03:14;99729.25;;;3.98;100.00
28588;BME280;15787;49.662;10.162;2023-11-22T02:05:50;99726.75;;;4.16;100.00
28588;BME280;15787;49.662;10.162;2023-11-22T02:08:22;99741.44;;;3.97;100.00
28588;BME280;15787;49.662;10.162;2023-11-22T02:10:59;99750.00;;;3.66;100.00
28588;BME280;15787;49.662;10.162;2023-11-22T02:13:34;99750.13;;;3.73;100.00
28588;BME280;15787;49.662;10.162;2023-11-22T02:16:07;99754.34;;;3.90;100.00
28588;BME280;15787;49.662;10.162;2023-11-22T02:18:40;99757.22;;;3.97;100.00
28588;BME280;15787;49.662;10.162;2023-11-22T02:21:16;99758.53;;;3.80;100.00
28588;BME280;15787;49.662;10.162;2023-11-22T02:23:51;99761.72;;;3.82;100.00
28588;BME280;15787;49.662;10.162;2023-11-22T02:26:23;99757.41;;;3.84;100.00
28588;BME280;15787;49.662;10.162;2023-11-22T02:28:56;99755.47;;;3.85;100.00
28588;BME280;15787;49.662;10.162;2023-11-22T02:31:30;99763.56;;;3.74;98.82
28588;BME280;15787;49.662;10.162;2023-11-22T02:34:05;99762.09;;;3.80;98.20
28588;BME280;15787;49.662;10.162;2023-11-22T02:36:38;99755.38;;;3.81;96.75
28588;BME280;15787;49.662;10.162;2023-11-22T02:39:14;99756.06;;;3.75;95.99
28588;BME280;15787;49.662;10.162;2023-11-22T02:41:47;99762.44;;;3.79;95.10
28588;BME280;15787;49.662;10.162;2023-11-22T02:44:20;99768.47;;;3.62;93.70
28588;BME280;15787;49.662;10.162;2023-11-22T02:46:53;99765.66;;;3.81;94.08
28588;BME280;15787;49.662;10.162;2023-11-22T02:49:26;99768.28;;;3.74;94.69
28588;BME280;15787;49.662;10.162;2023-11-22T02:51:59;99755.78;;;3.80;94.49
28588;BME280;15787;49.662;10.162;2023-11-22T02:54:34;99758.09;;;3.78;94.15
28588;BME280;15787;49.662;10.162;2023-11-22T02:57:07;99767.94;;;3.75;93.82
28588;BME280;15787;49.662;10.162;2023-11-22T02:59:41;99763.22;;;3.76;93.90
28588;BME280;15787;49.662;10.162;2023-11-22T03:02:14;99763.31;;;3.60;92.71
28588;BME280;15787;49.662;10.162;2023-11-22T03:04:48;99777.94;;;3.61;92.89
28588;BME280;15787;49.662;10.162;2023-11-22T03:07:21;99790.50;;;3.58;92.56
28588;BME280;15787;49.662;10.162;2023-11-22T03:09:55;99789.03;;;3.64;92.46
28588;BME280;15787;49.662;10.162;2023-11-22T03:12:34;99786.28;;;3.64;93.02
28588;BME280;15787;49.662;10.162;2023-11-22T03:15:08;99798.66;;;3.51;91.80
28588;BME280;15787;49.662;10.162;2023-11-22T03:17:41;99806.94;;;3.51;91.72
28588;BME280;15787;49.662;10.162;2023-11-22T03:20:16;99802.78;;;3.61;91.62
28588;BME280;15787;49.662;10.162;2023-11-22T03:22:49;99808.06;;;3.69;91.45
28588;BME280;15787;49.662;10.162;2023-11-22T03:25:24;99812.09;;;3.53;91.36
28588;BME280;15787;49.662;10.162;2023-11-22T03:27:57;99811.47;;;3.40;90.61
28588;BME280;15787;49.662;10.162;2023-11-22T03:30:29;99817.13;;;3.47;90.41
28588;BME280;15787;49.662;10.162;2023-11-22T03:33:03;99824.72;;;3.54;91.34
28588;BME280;15787;49.662;10.162;2023-11-22T03:35:36;99831.84;;;3.36;90.63
28588;BME280;15787;49.662;10.162;2023-11-22T03:38:09;99834.84;;;3.46;90.31
28588;BME280;15787;49.662;10.162;2023-11-22T03:40:43;99843.50;;;3.45;90.74
28588;BME280;15787;49.662;10.162;2023-11-22T03:43:17;99838.13;;;3.13;90.53
28588;BME280;15787;49.662;10.162;2023-11-22T03:45:50;99840.44;;;2.92;89.18
28588;BME280;15787;49.662;10.162;2023-11-22T03:48:23;99833.03;;;2.96;89.28
28588;BME280;15787;49.662;10.162;2023-11-22T03:50:58;99853.00;;;2.90;88.86
28588;BME280;15787;49.662;10.162;2023-11-22T03:53:32;99845.22;;;2.95;89.41
28588;BME280;15787;49.662;10.162;2023-11-22T03:56:09;99851.94;;;2.79;89.39
28588;BME280;15787;49.662;10.162;2023-11-22T03:58:42;99859.78;;;2.77;89.12
28588;BME280;15787;49.662;10.162;2023-11-22T04:01:22;99860.84;;;2.72;89.18
28588;BME280;15787;49.662;10.162;2023-11-22T04:03:56;99858.28;;;2.64;89.01
28588;BME280;15787;49.662;10.162;2023-11-22T04:06:29;99862.13;;;2.59;88.49
28588;BME280;15787;49.662;10.162;2023-11-22T04:09:03;99866.22;;;2.49;88.33
28588;BME280;15787;49.662;10.162;2023-11-22T04:11:39;99881.25;;;2.52;88.33
28588;BME280;15787;49.662;10.162;2023-11-22T04:14:12;99885.97;;;2.51;88.57
28588;BME280;15787;49.662;10.162;2023-11-22T04:16:46;99882.97;;;2.41;88.91
28588;BME280;15787;49.662;10.162;2023-11-22T04:19:19;99882.69;;;2.30;88.56
28588;BME280;15787;49.662;10.162;2023-11-22T04:21:52;99892.81;;;2.26;88.26
28588;BME280;15787;49.662;10.162;2023-11-22T04:24:26;99894.31;;;2.24;88.32
28588;BME280;15787;49.662;10.162;2023-11-22T04:27:00;99895.81;;;2.21;88.75
28588;BME280;15787;49.662;10.162;2023-11-22T04:29:37;99907.03;;;2.13;88.53
28588;BME280;15787;49.662;10.162;2023-11-22T04:32:10;99919.59;;;2.26;88.82
28588;BME280;15787;49.662;10.162;2023-11-22T04:34:43;99914.94;;;2.14;89.05
28588;BME280;15787;49.662;10.162;2023-11-22T04:37:16;99923.72;;;2.04;88.88
28588;BME280;15787;49.662;10.162;2023-11-22T04:39:49;99931.91;;;2.01;88.92
28588;BME280;15787;49.662;10.162;2023-11-22T04:42:25;99934.91;;;2.11;89.04
28588;BME280;15787;49.662;10.162;2023-11-22T04:44:58;99943.25;;;1.99;89.32
28588;BME280;15787;49.662;10.162;2023-11-22T04:47:31;99945.75;;;2.04;89.63
28588;BME280;15787;49.662;10.162;2023-11-22T04:50:05;99949.31;;;2.05;90.12
28588;BME280;15787;49.662;10.162;2023-11-22T04:52:38;99941.22;;;1.96;89.71
28588;BME280;15787;49.662;10.162;2023-11-22T04:55:11;99947.19;;;1.98;89.90
28588;BME280;15787;49.662;10.162;2023-11-22T04:57:45;99939.28;;;2.12;90.08
28588;BME280;15787;49.662;10.162;2023-11-22T05:00:19;99956.91;;;1.80;89.74
28588;BME280;15787;49.662;10.162;2023-11-22T05:02:52;99960.66;;;1.87;89.80
28588;BME280;15787;49.662;10.162;2023-11-22T05:05:26;99959.59;;;1.92;89.53
28588;BME280;15787;49.662;10.162;2023-11-22T05:07:58;99958.78;;;1.91;90.45
28588;BME280;15787;49.662;10.162;2023-11-22T05:10:32;99958.84;;;1.79;90.36
28588;BME280;15787;49.662;10.162;2023-11-22T05:13:06;99968.06;;;1.71;90.34
28588;BME280;15787;49.662;10.162;2023-11-22T05:15:39;99969.44;;;1.77;90.10
28588;BME280;15787;49.662;10.162;2023-11-22T05:18:12;99966.63;;;1.89;90.73
28588;BME280;15787;49.662;10.162;2023-11-22T05:20:45;99957.91;;;1.87;90.67
28588;BME280;15787;49.662;10.162;2023-11-22T05:23:20;99973.00;;;1.66;90.63
28588;BME280;15787;49.662;10.162;2023-11-22T05:25:53;99974.50;;;1.91;90.96
28588;BME280;15787;49.662;10.162;2023-11-22T05:28:29;99974.00;;;1.85;90.61
28588;BME280;15787;49.662;10.162;2023-11-22T05:31:03;99981.38;;;1.69;89.94
28588;BME280;15787;49.662;10.162;2023-11-22T05:33:35;99983.78;;;1.71;90.22
28588;BME280;15787;49.662;10.162;2023-11-22T05:36:08;99985.00;;;1.85;90.20
28588;BME280;15787;49.662;10.162;2023-11-22T05:38:43;99983.44;;;1.72;90.29
28588;BME280;15787;49.662;10.162;2023-11-22T05:41:16;99991.84;;;1.64;90.05
28588;BME280;15787;49.662;10.162;2023-11-22T05:43:50;99989.28;;;1.71;90.14
28588;BME280;15787;49.662;10.162;2023-11-22T05:46:23;99994.03;;;1.58;89.72
28588;BME280;15787;49.662;10.162;2023-11-22T05:48:57;100013.63;;;1.69;89.55
28588;BME280;15787;49.662;10.162;2023-11-22T05:51:32;100025.31;;;1.66;89.81
28588;BME280;15787;49.662;10.162;2023-11-22T05:54:06;100020.84;;;1.61;88.91
28588;BME280;15787;49.662;10.162;2023-11-22T05:56:39;100016.25;;;1.65;88.85
28588;BME280;15787;49.662;10.162;2023-11-22T05:59:13;100021.31;;;1.63;88.75
28588;BME280;15787;49.662;10.162;2023-11-22T06:01:46;100039.66;;;1.71;88.89
28588;BME280;15787;49.662;10.162;2023-11-22T06:04:19;100050.81;;;1.51;88.10
28588;BME280;15787;49.662;10.162;2023-11-22T06:06:52;100058.84;;;1.56;87.87
28588;BME280;15787;49.662;10.162;2023-11-22T06:09:25;100052.16;;;1.69;87.77
28588;BME280;15787;49.662;10.162;2023-11-22T06:11:58;100074.06;;;1.65;87.16
28588;BME280;15787;49.662;10.162;2023-11-22T06:14:32;100083.03;;;1.50;86.36
28588;BME280;15787;49.662;10.162;2023-11-22T06:17:05;100076.13;;;1.68;87.11
28588;BME280;15787;49.662;10.162;2023-11-22T06:19:38;100082.31;;;1.65;87.10
28588;BME280;15787;49.662;10.162;2023-11-22T06:22:11;100077.63;;;1.66;86.99
28588;BME280;15787;49.662;10.162;2023-11-22T06:24:44;100091.41;;;1.54;86.57
28588;BME280;15787;49.662;10.162;2023-11-22T06:27:19;100094.53;;;1.52;87.10
28588;BME280;15787;49.662;10.162;2023-11-22T06:29:53;100089.09;;;1.56;86.99
28588;BME280;15787;49.662;10.162;2023-11-22T06:32:26;100094.81;;;1.63;86.71
28588;BME280;15787;49.662;10.162;2023-11-22T06:34:59;100105.50;;;1.64;87.20
28588;BME280;15787;49.662;10.162;2023-11-22T06:37:32;100101.25;;;1.79;87.59
28588;BME280;15787;49.662;10.162;2023-11-22T06:40:06;100110.56;;;1.62;87.32
28588;BME280;15787;49.662;10.162;2023-11-22T06:42:40;100103.09;;;1.63;87.49
28588;BME280;15787;49.662;10.162;2023-11-22T06:45:14;100099.44;;;1.59;87.25
28588;BME280;15787;49.662;10.162;2023-11-22T06:47:47;100103.81;;;1.60;87.22
28588;BME280;15787;49.662;10.162;2023-11-22T06:50:22;100102.41;;;1.66;87.14
28588;BME280;15787;49.662;10.162;2023-11-22T06:52:56;100104.34;;;1.65;86.85
28588;BME280;15787;49.662;10.162;2023-11-22T06:55:28;100100.56;;;1.58;86.84
28588;BME280;15787;49.662;10.162;2023-11-22T06:58:02;100096.44;;;1.64;86.47
28588;BME280;15787;49.662;10.162;2023-11-22T07:00:36;100111.50;;;1.54;86.13
28588;BME280;15787;49.662;10.162;2023-11-22T07:03:11;100116.19;;;1.54;86.03
28588;BME280;15787;49.662;10.162;2023-11-22T07:05:46;100122.25;;;1.59;86.36
28588;BME280;15787;49.662;10.162;2023-11-22T07:08:19;100133.16;;;1.56;86.08
28588;BME280;15787;49.662;10.162;2023-11-22T07:10:53;100144.97;;;1.56;86.53
28588;BME280;15787;49.662;10.162;2023-11-22T07:13:28;100153.00;;;1.61;86.35
28588;BME280;15787;49.662;10.162;2023-11-22T07:16:02;100154.03;;;1.57;86.35
28588;BME280;15787;49.662;10.162;2023-11-22T07:18:35;100165.72;;;1.54;86.55
28588;BME280;15787;49.662;10.162;2023-11-22T07:21:08;100169.16;;;1.51;86.48
28588;BME280;15787;49.662;10.162;2023-11-22T07:23:41;100164.81;;;1.62;86.75
28588;BME280;15787;49.662;10.162;2023-11-22T07:26:17;100162.97;;;1.54;86.85
28588;BME280;15787;49.662;10.162;2023-11-22T07:28:51;100169.28;;;1.66;87.05
28588;BME280;15787;49.662;10.162;2023-11-22T07:31:25;100165.97;;;1.61;86.79
28588;BME280;15787;49.662;10.162;2023-11-22T07:33:58;100168.25;;;1.59;86.84
28588;BME280;15787;49.662;10.162;2023-11-22T07:36:33;100178.47;;;1.58;86.71
28588;BME280;15787;49.662;10.162;2023-11-22T07:39:06;100168.50;;;1.54;86.69
28588;BME280;15787;49.662;10.162;2023-11-22T07:41:41;100172.38;;;1.41;86.65
28588;BME280;15787;49.662;10.162;2023-11-22T07:44:14;100175.94;;;1.53;86.69
28588;BME280;15787;49.662;10.162;2023-11-22T07:46:49;100184.31;;;1.45;86.14
28588;BME280;15787;49.662;10.162;2023-11-22T07:49:23;100181.22;;;1.46;86.03
28588;BME280;15787;49.662;10.162;2023-11-22T07:51:56;100196.69;;;1.51;86.35
28588;BME280;15787;49.662;10.162;2023-11-22T07:54:29;100182.13;;;1.50;86.22
28588;BME280;15787;49.662;10.162;2023-11-22T07:57:02;100190.59;;;1.45;86.62
28588;BME280;15787;49.662;10.162;2023-11-22T07:59:34;100192.34;;;1.50;86.83
28588;BME280;15787;49.662;10.162;2023-11-22T08:02:09;100188.19;;;1.68;87.18
28588;BME280;15787;49.662;10.162;2023-11-22T08:04:43;100188.34;;;1.59;87.17
28588;BME280;15787;49.662;10.162;2023-11-22T08:07:16;100190.50;;;1.66;86.65
28588;BME280;15787;49.662;10.162;2023-11-22T08:09:49;100186.25;;;1.56;86.91
28588;BME280;15787;49.662;10.162;2023-11-22T08:12:22;100194.97;;;1.58;87.34
28588;BME280;15787;49.662;10.162;2023-11-22T08:14:55;100191.09;;;1.59;87.10
28588;BME280;15787;49.662;10.162;2023-11-22T08:17:29;100192.34;;;1.62;87.07
28588;BME280;15787;49.662;10.162;2023-11-22T08:20:05;100196.69;;;1.63;86.86
28588;BME280;15787;49.662;10.162;2023-11-22T08:22:46;100196.69;;;1.51;86.72
28588;BME280;15787;49.662;10.162;2023-11-22T08:25:21;100196.72;;;1.75;86.97
28588;BME280;15787;49.662;10.162;2023-11-22T08:27:54;100197.72;;;1.70;86.98
28588;BME280;15787;49.662;10.162;2023-11-22T08:30:27;100196.81;;;1.66;87.13
28588;BME280;15787;49.662;10.162;2023-11-22T08:33:01;100201.53;;;1.66;86.69
28588;BME280;15787;49.662;10.162;2023-11-22T08:35:34;100204.28;;;1.78;86.85
28588;BME280;15787;49.662;10.162;2023-11-22T08:38:07;100197.97;;;1.77;86.17
28588;BME280;15787;49.662;10.162;2023-11-22T08:40:41;100201.41;;;1.74;85.85
28588;BME280;15787;49.662;10.162;2023-11-22T08:43:14;100194.41;;;1.65;85.36
28588;BME280;15787;49.662;10.162;2023-11-22T08:45:47;100202.56;;;1.98;85.88
28588;BME280;15787;49.662;10.162;2023-11-22T08:48:29;100196.25;;;1.85;85.52
28588;BME280;15787;49.662;10.162;2023-11-22T08:51:03;100195.66;;;1.91;85.75
28588;BME280;15787;49.662;10.162;2023-11-22T08:53:36;100192.09;;;2.03;84.91
28588;BME280;15787;49.662;10.162;2023-11-22T08:56:10;100201.31;;;1.83;84.54
28588;BME280;15787;49.662;10.162;2023-11-22T08:58:43;100202.56;;;1.73;85.44
28588;BME280;15787;49.662;10.162;2023-11-22T09:01:16;100200.81;;;1.81;85.54
28588;BME280;15787;49.662;10.162;2023-11-22T09:03:51;100196.91;;;1.94;85.32
28588;BME280;15787;49.662;10.162;2023-11-22T09:06:24;100201.63;;;1.93;85.16
28588;BME280;15787;49.662;10.162;2023-11-22T09:08:57;100209.56;;;1.83;85.21
28588;BME280;15787;49.662;10.162;2023-11-22T09:11:30;100192.69;;;1.72;84.44
28588;BME280;15787;49.662;10.162;2023-11-22T09:14:03;100190.97;;;1.68;83.96
28588;BME280;15787;49.662;10.162;2023-11-22T09:16:36;100192.34;;;1.74;84.11
28588;BME280;15787;49.662;10.162;2023-11-22T09:19:12;100184.16;;;2.02;84.16
28588;BME280;15787;49.662;10.162;2023-11-22T09:21:44;100184.25;;;2.17;84.23
28588;BME280;15787;49.662;10.162;2023-11-22T09:24:17;100167.75;;;2.45;84.13
28588;BME280;15787;49.662;10.162;2023-11-22T09:26:51;100179.53;;;2.30;82.82
28588;BME280;15787;49.662;10.162;2023-11-22T09:29:24;100197.81;;;2.10;82.24
28588;BME280;15787;49.662;10.162;2023-11-22T09:31:57;100193.25;;;2.02;82.25
28588;BME280;15787;49.662;10.162;2023-11-22T09:34:33;100204.44;;;2.21;82.12
28588;BME280;15787;49.662;10.162;2023-11-22T09:37:06;100216.06;;;2.15;81.66
28588;BME280;15787;49.662;10.162;2023-11-22T09:39:39;100222.41;;;2.03;82.52
28588;BME280;15787;49.662;10.162;2023-11-22T09:42:12;100228.72;;;2.16;83.09
28588;BME280;15787;49.662;10.162;2023-11-22T09:44:45;100222.09;;;2.44;83.71
28588;BME280;15787;49.662;10.162;2023-11-22T09:47:18;100226.22;;;2.50;83.64
28588;BME280;15787;49.662;10.162;2023-11-22T09:49:55;100237.69;;;2.52;83.12
28588;BME280;15787;49.662;10.162;2023-11-22T09:52:33;100226.97;;;2.63;82.66
28588;BME280;15787;49.662;10.162;2023-11-22T09:55:07;100240.69;;;2.47;83.30
28588;BME280;15787;49.662;10.162;2023-11-22T09:57:40;100262.19;;;2.54;82.22
28588;BME280;15787;49.662;10.162;2023-11-22T10:00:16;100239.38;;;2.97;82.41
28588;BME280;15787;49.662;10.162;2023-11-22T10:02:50;100245.28;;;3.11;81.94
28588;BME280;15787;49.662;10.162;2023-11-22T10:05:25;100251.91;;;3.22;81.01
28588;BME280;15787;49.662;10.162;2023-11-22T10:08:00;100248.13;;;3.42;80.64
28588;BME280;15787;49.662;10.162;2023-11-22T10:10:34;100247.59;;;3.52;80.03
28588;BME280;15787;49.662;10.162;2023-11-22T10:13:08;100235.81;;;3.87;80.28
28588;BME280;15787;49.662;10.162;2023-11-22T10:15:42;100242.09;;;3.68;78.74
28588;BME280;15787;49.662;10.162;2023-11-22T10:18:15;100240.47;;;4.33;77.55
28588;BME280;15787;49.662;10.162;2023-11-22T10:20:50;100236.38;;;4.81;76.82
28588;BME280;15787;49.662;10.162;2023-11-22T10:23:24;100230.72;;;4.74;75.14
28588;BME280;15787;49.662;10.162;2023-11-22T10:26:00;100241.41;;;4.56;73.85
28588;BME280;15787;49.662;10.162;2023-11-22T10:28:39;100243.75;;;4.73;74.27
28588;BME280;15787;49.662;10.162;2023-11-22T10:31:12;100244.00;;;4.49;72.65
28588;BME280;15787;49.662;10.162;2023-11-22T10:33:46;100248.88;;;4.36;73.18
28588;BME280;15787;49.662;10.162;2023-11-22T10:36:21;100255.69;;;4.08;74.24
28588;BME280;15787;49.662;10.162;2023-11-22T10:38:54;100247.22;;;4.01;73.49
28588;BME280;15787;49.662;10.162;2023-11-22T10:41:27;100251.22;;;4.19;74.53
28588;BME280;15787;49.662;10.162;2023-11-22T10:44:01;100250.31;;;4.15;75.30
28588;BME280;15787;49.662;10.162;2023-11-22T10:46:36;100242.91;;;4.34;74.57
28588;BME280;15787;49.662;10.162;2023-11-22T10:49:10;100247.22;;;5.08;73.35
28588;BME280;15787;49.662;10.162;2023-11-22T10:51:51;100258.00;;;5.13;72.28
28588;BME280;15787;49.662;10.162;2023-11-22T10:54:24;100257.38;;;4.82;72.37
28588;BME280;15787;49.662;10.162;2023-11-22T10:56:58;100268.63;;;4.54;73.70
28588;BME280;15787;49.662;10.162;2023-11-22T10:59:32;100275.47;;;4.25;73.96
28588;BME280;15787;49.662;10.162;2023-11-22T11:02:11;100265.88;;;4.04;74.59
28588;BME280;15787;49.662;10.162;2023-11-22T11:04:53;100255.78;;;4.11;74.17
28588;BME280;15787;49.662;10.162;2023-11-22T11:07:32;100261.75;;;3.82;75.68
28588;BME280;15787;49.662;10.162;2023-11-22T11:10:10;100250.38;;;3.83;74.71
28588;BME280;15787;49.662;10.162;2023-11-22T11:12:53;100244.47;;;4.16;75.13
28588;BME280;15787;49.662;10.162;2023-11-22T11:15:26;100241.53;;;3.94;73.52
28588;BME280;15787;49.662;10.162;2023-11-22T11:18:00;100255.25;;;3.59;74.68
28588;BME280;15787;49.662;10.162;2023-11-22T11:20:45;100269.72;;;3.83;76.05
28588;BME280;15787;49.662;10.162;2023-11-22T11:23:22;100276.91;;;3.72;75.90
28588;BME280;15787;49.662;10.162;2023-11-22T11:25:57;100283.34;;;3.61;75.69
28588;BME280;15787;49.662;10.162;2023-11-22T11:28:42;100283.06;;;3.81;75.91
28588;BME280;15787;49.662;10.162;2023-11-22T11:31:15;100289.47;;;3.54;75.99
28588;BME280;15787;49.662;10.162;2023-11-22T11:33:56;100291.16;;;3.59;76.26
28588;BME280;15787;49.662;10.162;2023-11-22T11:36:30;100287.47;;;3.39;76.18
28588;BME280;15787;49.662;10.162;2023-11-22T11:39:07;100299.81;;;3.57;76.84
28588;BME280;15787;49.662;10.162;2023-11-22T11:41:46;100310.13;;;3.45;76.50
28588;BME280;15787;49.662;10.162;2023-11-22T11:44:19;100316.03;;;3.74;76.48
28588;BME280;15787;49.662;10.162;2023-11-22T11:46:52;100318.41;;;3.45;76.72
28588;BME280;15787;49.662;10.162;2023-11-22T11:49:25;100318.88;;;3.62;77.38
28588;BME280;15787;49.662;10.162;2023-11-22T11:52:00;100322.06;;;3.49;77.81
28588;BME280;15787;49.662;10.162;2023-11-22T11:54:34;100327.00;;;3.28;78.22
28588;BME280;15787;49.662;10.162;2023-11-22T11:57:07;100313.88;;;3.52;78.42
28588;BME280;15787;49.662;10.162;2023-11-22T11:59:41;100320.22;;;3.68;78.41
28588;BME280;15787;49.662;10.162;2023-11-22T12:02:14;100328.25;;;3.30;78.62
28588;BME280;15787;49.662;10.162;2023-11-22T12:04:48;100338.69;;;3.37;78.92
28588;BME280;15787;49.662;10.162;2023-11-22T12:07:21;100329.50;;;3.33;78.60
28588;BME280;15787;49.662;10.162;2023-11-22T12:09:55;100337.72;;;3.45;79.17
28588;BME280;15787;49.662;10.162;2023-11-22T12:12:29;100326.25;;;3.43;78.66
28588;BME280;15787;49.662;10.162;2023-11-22T12:15:02;100317.84;;;3.39;78.21
28588;BME280;15787;49.662;10.162;2023-11-22T12:17:35;100317.59;;;3.44;78.49
28588;BME280;15787;49.662;10.162;2023-11-22T12:20:10;100315.38;;;3.50;78.47
28588;BME280;15787;49.662;10.162;2023-11-22T12:22:47;100320.03;;;3.46;77.72
28588;BME280;15787;49.662;10.162;2023-11-22T12:25:21;100323.91;;;3.45;77.84
28588;BME280;15787;49.662;10.162;2023-11-22T12:27:54;100318.50;;;3.48;77.73
28588;BME280;15787;49.662;10.162;2023-11-22T12:30:29;100303.09;;;3.47;77.83
28588;BME280;15787;49.662;10.162;2023-11-22T12:33:04;100303.53;;;3.49;77.62
28588;BME280;15787;49.662;10.162;2023-11-22T12:35:39;100300.69;;;3.61;76.80
28588;BME280;15787;49.662;10.162;2023-11-22T12:38:13;100303.75;;;3.29;76.98
28588;BME280;15787;49.662;10.162;2023-11-22T12:40:47;100323.88;;;3.29;77.16
28588;BME280;15787;49.662;10.162;2023-11-22T12:43:20;100317.34;;;3.49;77.87
28588;BME280;15787;49.662;10.162;2023-11-22T12:45:58;100296.19;;;3.41;77.67
28588;BME280;15787;49.662;10.162;2023-11-22T12:48:31;100297.66;;;3.51;78.07
28588;BME280;15787;49.662;10.162;2023-11-22T12:51:15;100299.44;;;3.59;78.22
28588;BME280;15787;49.662;10.162;2023-11-22T12:53:48;100295.44;;;3.72;78.09
28588;BME280;15787;49.662;10.162;2023-11-22T12:56:23;100301.59;;;3.65;77.65
28588;BME280;15787;49.662;10.162;2023-11-22T12:58:59;100314.09;;;3.91;78.13
28588;BME280;15787;49.662;10.162;2023-11-22T13:01:34;100312.47;;;3.58;77.71
28588;BME280;15787;49.662;10.162;2023-11-22T13:04:07;100320.19;;;3.53;78.25
28588;BME280;15787;49.662;10.162;2023-11-22T13:06:41;100324.59;;;3.69;78.68
28588;BME280;15787;49.662;10.162;2023-11-22T13:09:14;100313.47;;;3.97;77.63
28588;BME280;15787;49.662;10.162;2023-11-22T13:11:49;100300.53;;;3.70;77.13
28588;BME280;15787;49.662;10.162;2023-11-22T13:14:23;100303.78;;;3.44;77.57
28588;BME280;15787;49.662;10.162;2023-11-22T13:16:58;100295.50;;;3.44;77.15
28588;BME280;15787;49.662;10.162;2023-11-22T13:19:31;100290.97;;;3.52;77.25
28588;BME280;15787;49.662;10.162;2023-11-22T13:22:04;100283.56;;;3.40;77.83
28588;BME280;15787;49.662;10.162;2023-11-22T13:24:40;100278.53;;;3.73;77.74
28588;BME280;15787;49.662;10.162;2023-11-22T13:27:14;100276.63;;;3.62;77.82